Time;durP1;ratioP1;P1;durP2;ratioP2;P2;SDS_P1;SDS_P2;PMS_P1;PMS_P2;Temp;Humidity;BMP_temperature;BMP_pressure;BME280_temperature;BME280_humidity;BME280_pressure;Samples;Min_cycle;Max_cycle;Signal;HPM_P1;HPM_P2
2022/12/23 00:00:28;;;;;;;81.40;44.13;;;;;;;1.58;88.98;99499.13;4995487;28;20437;-69
2022/12/23 00:02:55;;;;;;;86.60;44.73;;;;;;;1.62;89.16;99510.13;4996560;28;20886;-71
2022/12/23 00:05:21;;;;;;;90.00;43.70;;;;;;;1.69;89.02;99509.44;4995809;28;20449;-70
2022/12/23 00:07:48;;;;;;;81.03;45.73;;;;;;;1.76;89.16;99502.66;4996047;28;20445;-69
2022/12/23 00:10:15;;;;;;;88.03;44.67;;;;;;;1.80;88.73;99504.03;4995627;28;20500;-71
2022/12/23 00:15:27;;;;;;;81.50;44.90;;;;;;;1.86;87.77;99508.72;4995528;28;20472;-69
2022/12/23 00:17:53;;;;;;;90.87;44.67;;;;;;;1.89;88.62;99511.06;4995286;28;20876;-71
2022/12/23 00:20:20;;;;;;;79.90;43.97;;;;;;;1.90;87.64;99510.09;4995408;28;20505;-69
2022/12/23 00:23:05;;;;;;;87.00;44.37;;;;;;;1.91;87.04;99500.47;4995130;28;21082;-70
2022/12/23 00:25:43;;;;;;;77.80;43.37;;;;;;;1.91;87.95;99500.47;4995124;28;20442;-71
2022/12/23 00:28:12;;;;;;;85.80;45.67;;;;;;;1.92;87.43;99502.91;4995899;28;20432;-70
2022/12/23 00:30:45;;;;;;;88.67;45.20;;;;;;;1.95;87.92;99500.00;4995283;28;20503;-70
2022/12/23 00:33:12;;;;;;;84.80;44.23;;;;;;;1.91;87.81;99493.41;4995073;28;20437;-69
2022/12/23 00:35:39;;;;;;;87.77;46.03;;;;;;;1.98;87.45;99507.59;4995398;28;20512;-70
2022/12/23 00:38:05;;;;;;;88.60;46.23;;;;;;;1.97;87.29;99498.09;4995182;28;20437;-69
2022/12/23 00:43:17;;;;;;;85.37;44.67;;;;;;;1.95;87.79;99502.63;4995165;28;20465;-71
2022/12/23 00:45:45;;;;;;;93.67;46.20;;;;;;;1.88;88.38;99501.53;4994948;28;20508;-71
2022/12/23 00:50:55;;;;;;;82.87;44.53;;;;;;;1.87;88.85;99505.13;4994836;28;20413;-70
2022/12/23 00:53:23;;;;;;;87.10;43.77;;;;;;;1.90;88.54;99499.63;4994631;28;20946;-70
2022/12/23 00:55:50;;;;;;;79.17;45.00;;;;;;;1.97;88.29;99497.25;4994534;28;20528;-72
2022/12/23 00:58:18;;;;;;;90.80;44.93;;;;;;;1.93;87.95;99498.50;4995099;28;20812;-70
2022/12/23 01:06:20;;;;;;;78.90;43.13;;;;;;;1.95;87.62;99494.78;4974786;28;20808;-71
2022/12/23 01:08:47;;;;;;;85.83;44.67;;;;;;;1.95;87.13;99489.53;4994957;28;20434;-70
2022/12/23 01:11:13;;;;;;;80.27;43.97;;;;;;;1.98;87.15;99476.16;4994514;28;20500;-70
2022/12/23 01:13:40;;;;;;;94.50;44.87;;;;;;;1.99;87.95;99476.97;4994272;28;20499;-70
2022/12/23 01:16:11;;;;;;;88.80;46.93;;;;;;;1.95;87.44;99468.59;4994331;28;20938;-70
2022/12/23 01:18:37;;;;;;;86.27;46.07;;;;;;;1.98;87.38;99470.94;4994454;28;20434;-70
2022/12/23 01:21:05;;;;;;;84.93;44.80;;;;;;;1.96;87.26;99466.81;4993985;28;20485;-70
2022/12/23 01:23:33;;;;;;;91.67;45.83;;;;;;;1.99;87.44;99469.97;4993995;28;21101;-70
2022/12/23 01:26:01;;;;;;;87.77;42.93;;;;;;;1.97;86.92;99464.06;4993933;28;20453;-70
2022/12/23 01:28:30;;;;;;;91.57;44.40;;;;;;;2.00;87.40;99468.97;4993964;28;20450;-72
2022/12/23 01:30:57;;;;;;;90.30;43.60;;;;;;;1.96;86.99;99459.75;4993782;28;20962;-70
2022/12/23 01:33:25;;;;;;;82.53;41.43;;;;;;;2.00;87.46;99461.13;4994217;28;20450;-70
2022/12/23 01:35:52;;;;;;;79.30;41.70;;;;;;;1.93;87.63;99446.13;4994078;28;20520;-70
2022/12/23 01:38:19;;;;;;;84.67;41.50;;;;;;;2.06;86.98;99459.72;4994357;28;20442;-71
2022/12/23 01:40:45;;;;;;;81.47;42.80;;;;;;;2.08;86.63;99457.81;4993676;28;20438;-70
2022/12/23 01:43:15;;;;;;;73.70;39.30;;;;;;;2.09;87.43;99454.22;4993602;28;20485;-70
2022/12/23 01:45:42;;;;;;;67.93;38.47;;;;;;;2.10;87.96;99459.31;4993597;28;20442;-70
2022/12/23 01:48:12;;;;;;;69.93;39.13;;;;;;;2.11;87.93;99450.47;4994088;28;20442;-71
2022/12/23 01:50:44;;;;;;;70.90;38.07;;;;;;;2.13;88.79;99452.97;4993562;28;20430;-70
2022/12/23 01:53:15;;;;;;;68.20;37.23;;;;;;;2.12;88.48;99441.66;4994532;28;20434;-70
2022/12/23 01:55:47;;;;;;;62.87;36.43;;;;;;;2.13;88.23;99451.19;4993419;28;20434;-71
2022/12/23 01:58:18;;;;;;;70.33;38.03;;;;;;;1.98;88.97;99423.78;4994318;28;20500;-71
2022/12/23 02:03:44;;;;;;;82.43;38.63;;;;;;;1.99;88.02;99451.63;4993433;28;20460;-70
2022/12/23 02:09:19;;;;;;;66.87;35.07;;;;;;;2.08;88.73;99445.53;4993966;28;20488;-71
2022/12/23 02:12:26;;;;;;;68.20;35.70;;;;;;;2.12;87.80;99436.41;4993734;28;20430;-71
2022/12/23 02:18:12;;;;;;;63.77;33.10;;;;;;;2.14;87.80;99434.47;4990113;28;20505;-71
2022/12/23 02:21:01;;;;;;;53.90;32.17;;;;;;;2.14;88.03;99434.47;4993103;28;20531;-72
2022/12/23 02:24:04;;;;;;;58.77;32.67;;;;;;;2.04;88.39;99435.50;4993562;28;20469;-71
2022/12/23 02:27:03;;;;;;;63.60;34.20;;;;;;;2.08;88.15;99437.66;4984347;28;20445;-71
2022/12/23 02:30:24;;;;;;;68.30;35.07;;;;;;;2.09;88.06;99444.56;4993581;28;20799;-71
2022/12/23 02:33:18;;;;;;;81.57;36.40;;;;;;;2.03;87.83;99446.91;4994043;28;20437;-69
2022/12/23 02:35:52;;;;;;;59.07;32.90;;;;;;;1.98;88.52;99442.13;4993784;28;20488;-71
2022/12/23 02:38:26;;;;;;;55.83;31.73;;;;;;;1.90;88.42;99436.78;4992843;28;20438;-70
2022/12/23 02:41:01;;;;;;;63.03;33.23;;;;;;;1.87;89.66;99431.00;4992723;28;20933;-69
2022/12/23 02:43:35;;;;;;;63.93;35.47;;;;;;;1.90;89.75;99425.47;4992709;28;20500;-70
2022/12/23 02:46:08;;;;;;;66.90;34.73;;;;;;;2.00;89.35;99429.69;4992901;28;20445;-70
2022/12/23 02:48:44;;;;;;;66.60;34.83;;;;;;;1.96;89.11;99417.84;4993015;28;20491;-71
2022/12/23 02:51:14;;;;;;;67.67;34.70;;;;;;;2.02;88.56;99421.69;4992765;28;20425;-70
2022/12/23 02:53:45;;;;;;;68.17;34.63;;;;;;;2.07;88.26;99420.31;4991741;28;20488;-70
2022/12/23 02:56:14;;;;;;;70.30;33.77;;;;;;;2.08;88.58;99416.72;4992950;28;20926;-69
2022/12/23 02:58:46;;;;;;;69.70;35.73;;;;;;;2.07;88.46;99422.91;4992537;28;20830;-69
2022/12/23 03:01:16;;;;;;;56.20;32.80;;;;;;;2.07;88.43;99422.91;4992465;28;21005;-71
2022/12/23 03:03:45;;;;;;;63.50;34.43;;;;;;;2.09;88.92;99421.00;4992375;28;20508;-71
2022/12/23 03:06:21;;;;;;;76.27;35.73;;;;;;;2.11;88.17;99419.03;4992990;28;20500;-71
2022/12/23 03:08:50;;;;;;;58.70;34.13;;;;;;;2.13;88.73;99417.13;4992499;28;20480;-71
2022/12/23 03:11:18;;;;;;;68.00;38.80;;;;;;;2.13;88.22;99419.75;4992600;28;20900;-71
2022/12/23 03:13:59;;;;;;;70.73;35.13;;;;;;;2.17;89.06;99421.06;4992671;28;20461;-71
2022/12/23 03:16:35;;;;;;;59.43;32.57;;;;;;;2.20;87.67;99418.16;4993078;28;20441;-72
2022/12/23 03:19:16;;;;;;;68.73;33.80;;;;;;;2.18;87.21;99414.03;4992401;28;20933;-71
2022/12/23 03:21:46;;;;;;;68.17;34.50;;;;;;;2.18;88.37;99420.13;4993056;28;20535;-71
2022/12/23 03:24:22;;;;;;;69.87;33.57;;;;;;;2.21;88.01;99406.72;4993365;28;20874;-70
2022/12/23 03:26:56;;;;;;;60.00;33.90;;;;;;;2.19;87.99;99411.28;4993102;28;20435;-70
2022/12/23 03:29:27;;;;;;;66.13;32.87;;;;;;;2.25;87.20;99405.44;4992221;28;20918;-70
2022/12/23 03:31:57;;;;;;;57.60;33.47;;;;;;;2.25;87.61;99405.44;4992219;28;20437;-70
2022/12/23 03:34:30;;;;;;;63.33;33.50;;;;;;;2.26;88.06;99399.25;4992295;28;20525;-69
2022/12/23 03:37:00;;;;;;;56.93;33.30;;;;;;;2.25;88.15;99394.97;4992835;28;20499;-70
2022/12/23 03:39:31;;;;;;;62.90;35.23;;;;;;;2.24;87.39;99403.81;4992241;28;20434;-69
2022/12/23 03:42:09;;;;;;;57.80;32.27;;;;;;;2.17;87.46;99401.94;4992000;28;20437;-71
2022/12/23 03:44:39;;;;;;;53.90;30.33;;;;;;;2.16;88.13;99406.34;4992420;28;20886;-70
2022/12/23 03:47:10;;;;;;;49.03;28.27;;;;;;;2.13;88.29;99401.41;4992271;28;20492;-71
2022/12/23 03:49:42;;;;;;;56.10;29.83;;;;;;;2.14;87.63;99405.66;4992161;28;20488;-70
2022/12/23 03:52:13;;;;;;;52.67;28.20;;;;;;;2.15;88.15;99409.94;4992904;28;20848;-70
2022/12/23 03:54:51;;;;;;;48.63;27.33;;;;;;;2.16;88.70;99413.38;4992461;28;20438;-70
2022/12/23 03:57:20;;;;;;;46.80;26.93;;;;;;;2.14;88.97;99416.16;4992038;28;20787;-70
2022/12/23 03:59:50;;;;;;;45.70;27.20;;;;;;;2.17;87.96;99423.69;4992053;28;20499;-70
2022/12/23 04:02:24;;;;;;;53.00;27.77;;;;;;;2.03;87.00;99391.91;4992455;28;20449;-71
2022/12/23 04:05:03;;;;;;;47.57;27.50;;;;;;;2.23;87.50;99417.88;4995176;28;20441;-70
2022/12/23 04:07:34;;;;;;;43.33;26.67;;;;;;;2.20;86.66;99423.41;4995464;28;20995;-70
2022/12/23 04:10:01;;;;;;;48.50;27.47;;;;;;;2.21;87.73;99422.44;4995555;28;20429;-71
2022/12/23 04:12:30;;;;;;;43.90;26.67;;;;;;;2.18;88.33;99425.38;4995369;28;20445;-70
2022/12/23 04:14:57;;;;;;;48.83;26.13;;;;;;;2.15;87.50;99428.28;4995393;28;20503;-70
2022/12/23 04:17:23;;;;;;;48.93;26.07;;;;;;;2.19;87.46;99421.78;4995675;28;20492;-70
2022/12/23 04:19:51;;;;;;;41.67;25.90;;;;;;;2.19;88.43;99419.16;4995209;28;20811;-70
2022/12/23 04:22:19;;;;;;;56.07;29.30;;;;;;;2.14;87.54;99413.53;4995409;28;20441;-71
2022/12/23 04:24:46;;;;;;;46.20;29.07;;;;;;;2.05;87.36;99424.03;4995204;28;20442;-70
2022/12/23 04:27:13;;;;;;;52.50;28.80;;;;;;;1.93;87.89;99409.47;4995059;28;21014;-71
2022/12/23 04:29:40;;;;;;;56.03;29.03;;;;;;;1.88;88.02;99406.47;4995031;28;20445;-70
2022/12/23 04:32:07;;;;;;;54.03;29.87;;;;;;;1.91;89.38;99407.00;4994921;28;21025;-71
2022/12/23 04:34:33;;;;;;;65.70;33.07;;;;;;;1.90;89.01;99400.13;4995022;28;21007;-70
2022/12/23 04:37:00;;;;;;;57.90;32.10;;;;;;;1.92;89.16;99406.03;4995925;28;20496;-71
2022/12/23 04:39:28;;;;;;;59.00;32.50;;;;;;;1.97;88.69;99401.19;4995152;28;20434;-71
2022/12/23 04:41:55;;;;;;;58.33;32.27;;;;;;;1.95;88.53;99387.41;4995307;28;20441;-70
2022/12/23 04:44:22;;;;;;;54.10;31.80;;;;;;;1.93;88.61;99401.63;4995321;28;20521;-70
2022/12/23 04:46:48;;;;;;;56.13;32.40;;;;;;;1.65;88.85;99392.06;4994814;28;20503;-69
2022/12/23 04:49:15;;;;;;;67.00;34.13;;;;;;;1.82;89.41;99415.72;4994943;28;20448;-70
2022/12/23 04:51:42;;;;;;;63.77;37.23;;;;;;;1.86;90.28;99419.69;4995769;28;20449;-70
2022/12/23 04:54:08;;;;;;;74.00;41.23;;;;;;;1.89;90.20;99408.94;4994878;28;20508;-70
2022/12/23 04:56:36;;;;;;;66.23;37.70;;;;;;;1.84;89.74;99411.13;4994559;28;20501;-71
2022/12/23 04:59:03;;;;;;;81.53;35.40;;;;;;;1.92;89.86;99398.16;4994634;28;20438;-70
2022/12/23 05:01:30;;;;;;;66.73;37.17;;;;;;;1.98;88.95;99402.00;4994473;28;20445;-70
2022/12/23 05:03:56;;;;;;;75.93;36.07;;;;;;;1.99;89.77;99409.72;4994256;28;21005;-70
2022/12/23 05:06:23;;;;;;;63.83;36.43;;;;;;;1.98;89.31;99415.94;4994831;28;20438;-71
2022/12/23 05:08:50;;;;;;;71.27;36.93;;;;;;;2.04;89.27;99420.59;4994597;28;20507;-69
2022/12/23 05:11:16;;;;;;;66.47;32.47;;;;;;;1.98;88.87;99423.78;4994516;28;20504;-72
2022/12/23 05:13:45;;;;;;;67.70;32.80;;;;;;;1.98;89.68;99418.56;4994129;28;20942;-71
2022/12/23 05:16:11;;;;;;;67.23;33.20;;;;;;;1.94;90.10;99401.47;4993375;28;20503;-72
2022/12/23 05:18:38;;;;;;;53.03;30.77;;;;;;;2.00;90.80;99408.75;4994405;28;20870;-71
2022/12/23 05:21:05;;;;;;;55.70;31.93;;;;;;;2.04;91.10;99396.22;4994536;28;20477;-72
2022/12/23 05:23:32;;;;;;;69.60;35.30;;;;;;;2.13;90.76;99403.19;4993837;28;20485;-71
2022/12/23 05:25:59;;;;;;;59.23;34.77;;;;;;;2.09;90.16;99410.53;4994342;28;20441;-70
2022/12/23 05:28:25;;;;;;;80.00;37.13;;;;;;;2.08;89.61;99408.84;4993892;28;20445;-70
2022/12/23 05:30:59;;;;;;;76.07;38.73;;;;;;;2.14;89.80;99417.94;4993839;28;20845;-70
2022/12/23 05:33:26;;;;;;;90.33;45.53;;;;;;;2.18;89.04;99425.38;4994317;28;20438;-69
2022/12/23 05:35:53;;;;;;;114.40;55.83;;;;;;;2.24;88.70;99427.41;4991698;28;20970;-69
2022/12/23 05:38:20;;;;;;;100.93;44.10;;;;;;;2.29;90.15;99422.53;4993259;28;20465;-68
2022/12/23 05:40:47;;;;;;;134.43;59.20;;;;;;;2.69;98.00;99424.81;4993558;28;20499;-71
2022/12/23 05:43:14;;;;;;;97.30;50.43;;;;;;;2.63;91.30;99428.84;4993451;28;20477;-69
2022/12/23 05:45:41;;;;;;;94.10;47.70;;;;;;;2.60;89.62;99442.25;4993791;28;20442;-70
2022/12/23 05:48:09;;;;;;;120.57;51.20;;;;;;;2.48;88.92;99443.41;4993464;28;20473;-71
2022/12/23 05:50:36;;;;;;;99.07;48.77;;;;;;;2.41;88.07;99452.81;4993733;28;20508;-71
2022/12/23 05:53:04;;;;;;;88.17;47.33;;;;;;;2.30;88.64;99450.41;4991865;28;20799;-72
2022/12/23 05:55:31;;;;;;;85.83;45.23;;;;;;;2.30;88.82;99450.41;4993492;28;20450;-72
2022/12/23 05:57:58;;;;;;;82.20;43.37;;;;;;;2.25;87.78;99444.75;4993959;28;20507;-74
2022/12/23 06:00:25;;;;;;;81.93;42.27;;;;;;;2.10;88.64;99435.75;4993797;28;20504;-73
2022/12/23 06:02:52;;;;;;;84.90;45.13;;;;;;;2.16;89.35;99450.88;4992676;28;20442;-68
2022/12/23 06:05:20;;;;;;;97.07;51.97;;;;;;;2.19;89.14;99453.22;4992490;28;20516;-70
2022/12/23 06:07:47;;;;;;;103.90;55.20;;;;;;;2.18;89.22;99455.97;4993320;28;20875;-70
2022/12/23 06:10:14;;;;;;;82.47;45.80;;;;;;;2.24;89.34;99450.16;4993009;28;20504;-71
2022/12/23 06:12:40;;;;;;;94.70;47.63;;;;;;;2.28;88.58;99447.09;4992957;28;20441;-69
2022/12/23 06:15:08;;;;;;;125.87;50.60;;;;;;;2.27;88.46;99455.09;4992860;28;20954;-74
2022/12/23 06:17:35;;;;;;;121.00;51.30;;;;;;;2.29;88.44;99446.13;4993205;28;20449;-70
2022/12/23 06:20:02;;;;;;;106.20;52.03;;;;;;;2.33;89.08;99442.25;4992065;28;20478;-71
2022/12/23 06:22:30;;;;;;;142.93;61.23;;;;;;;2.38;88.16;99442.66;4992822;28;20484;-71
2022/12/23 06:24:56;;;;;;;155.93;65.60;;;;;;;2.45;88.20;99448.94;4992987;28;20473;-72
2022/12/23 06:27:23;;;;;;;136.50;65.27;;;;;;;2.49;87.90;99450.28;4992416;28;20441;-71
2022/12/23 06:29:50;;;;;;;134.67;63.03;;;;;;;2.44;87.64;99456.94;4992783;28;20879;-73
2022/12/23 06:32:16;;;;;;;126.50;59.63;;;;;;;2.52;88.57;99460.50;4992950;28;20441;-69
2022/12/23 06:34:43;;;;;;;133.53;55.83;;;;;;;2.67;88.11;99464.28;4992813;28;20549;-73
2022/12/23 06:37:10;;;;;;;110.23;52.17;;;;;;;2.85;87.92;99454.63;4992142;28;20954;-72
2022/12/23 06:39:38;;;;;;;110.60;51.20;;;;;;;2.98;87.51;99455.09;4992665;28;20446;-70
2022/12/23 06:42:05;;;;;;;129.73;52.17;;;;;;;3.07;87.12;99462.06;4992112;28;20972;-71
2022/12/23 06:44:31;;;;;;;111.10;51.60;;;;;;;3.00;85.42;99454.94;4992564;28;20533;-70
2022/12/23 06:46:58;;;;;;;96.43;51.80;;;;;;;2.87;86.10;99455.31;4992123;28;20437;-68
2022/12/23 06:49:25;;;;;;;97.30;51.07;;;;;;;2.86;85.95;99450.22;4989505;28;20438;-70
2022/12/23 06:51:51;;;;;;;92.23;49.63;;;;;;;2.82;85.50;99441.81;4971669;28;20437;-70
2022/12/23 06:54:18;;;;;;;86.37;44.80;;;;;;;2.93;87.27;99451.25;4972954;28;20443;-72
2022/12/23 06:56:46;;;;;;;96.10;45.53;;;;;;;3.00;87.08;99455.78;4973020;28;20449;-71
2022/12/23 06:59:13;;;;;;;107.23;48.30;;;;;;;2.97;86.65;99461.31;4973055;28;20447;-72
2022/12/23 07:01:40;;;;;;;117.90;53.10;;;;;;;3.01;87.27;99457.41;4973228;28;20443;-72
2022/12/23 07:04:06;;;;;;;111.50;54.40;;;;;;;3.02;86.28;99453.81;4981629;28;20465;-69
2022/12/23 07:06:33;;;;;;;117.73;50.67;;;;;;;3.17;85.96;99457.59;4988316;28;22912;-70
2022/12/23 07:09:00;;;;;;;128.70;51.20;;;;;;;3.24;85.85;99458.63;4991524;28;20496;-70
2022/12/23 07:11:26;;;;;;;117.10;53.73;;;;;;;3.32;85.61;99442.97;4991896;28;20449;-72
2022/12/23 07:13:54;;;;;;;115.13;53.33;;;;;;;3.47;84.91;99453.75;4992091;28;20512;-71
2022/12/23 07:16:21;;;;;;;102.20;48.83;;;;;;;3.56;84.52;99469.38;4992272;28;20434;-69
2022/12/23 07:18:48;;;;;;;94.63;48.23;;;;;;;3.60;84.10;99469.94;4992545;28;20500;-68
2022/12/23 07:21:14;;;;;;;104.27;48.10;;;;;;;3.93;85.25;99471.81;4992228;28;20504;-67
2022/12/23 07:23:41;;;;;;;84.23;41.50;;;;;;;4.32;83.11;99484.34;4992088;28;20469;-69
2022/12/23 07:26:08;;;;;;;81.80;40.87;;;;;;;4.68;81.40;99491.09;4992188;28;20257;-67
2022/12/23 07:28:35;;;;;;;81.77;42.67;;;;;;;5.00;79.28;99496.47;4992859;28;20199;-67
2022/12/23 07:31:05;;;;;;;89.90;39.43;;;;;;;5.16;78.09;99483.31;4991823;28;20714;-67
2022/12/23 07:33:31;;;;;;;68.40;35.47;;;;;;;5.56;77.19;99493.88;4992450;28;20234;-64
2022/12/23 07:35:59;;;;;;;60.13;37.27;;;;;;;5.88;76.58;99493.09;4981365;28;20217;-66
2022/12/23 07:38:26;;;;;;;76.07;35.73;;;;;;;6.28;74.60;99489.56;4975338;28;20207;-68
2022/12/23 07:40:53;;;;;;;53.20;29.90;;;;;;;6.62;75.04;99488.28;4976265;28;20246;-68
2022/12/23 07:43:19;;;;;;;58.13;33.23;;;;;;;7.00;72.03;99498.03;4976529;28;20195;-67
2022/12/23 07:45:46;;;;;;;62.00;32.70;;;;;;;7.39;68.98;99508.53;4977496;28;20212;-68
2022/12/23 07:48:14;;;;;;;60.17;37.90;;;;;;;7.60;69.34;99506.06;4995553;28;20201;-67
2022/12/23 07:50:41;;;;;;;50.57;30.97;;;;;;;7.57;67.88;99519.63;4995772;28;20194;-66
2022/12/23 07:53:08;;;;;;;53.83;29.93;;;;;;;7.63;68.57;99508.34;4994169;28;20202;-68
2022/12/23 07:55:34;;;;;;;58.80;32.67;;;;;;;7.92;66.90;99524.31;4995559;28;20198;-68
2022/12/23 07:58:01;;;;;;;47.63;27.83;;;;;;;7.81;67.22;99519.44;4994670;28;20253;-68
2022/12/23 08:00:28;;;;;;;47.20;28.13;;;;;;;7.98;66.82;99518.28;4995795;28;20252;-70
2022/12/23 08:02:54;;;;;;;43.10;27.43;;;;;;;8.19;67.28;99508.69;4995646;28;20737;-68
2022/12/23 08:05:22;;;;;;;52.33;28.70;;;;;;;8.46;65.81;99507.28;4981411;28;20305;-69
2022/12/23 08:07:49;;;;;;;58.77;28.37;;;;;;;8.76;63.63;99508.91;4995312;28;20207;-69
2022/12/23 08:10:16;;;;;;;46.63;28.30;;;;;;;9.10;63.42;99504.66;4996134;28;20256;-71
2022/12/23 08:12:43;;;;;;;46.27;26.40;;;;;;;9.31;61.39;99517.94;4995336;28;20238;-72
2022/12/23 08:15:10;;;;;;;45.07;25.70;;;;;;;9.41;60.77;99510.50;4994165;28;20675;-72
2022/12/23 08:17:36;;;;;;;41.30;25.20;;;;;;;9.52;60.87;99509.19;4995037;28;20194;-70
2022/12/23 08:20:04;;;;;;;39.83;24.93;;;;;;;9.76;58.66;99514.13;4995302;28;20234;-72
2022/12/23 08:22:32;;;;;;;37.53;26.00;;;;;;;9.96;58.67;99512.44;4995236;28;20198;-72
2022/12/23 08:24:59;;;;;;;42.73;24.83;;;;;;;10.14;58.07;99507.53;4994779;28;20218;-72
2022/12/23 08:27:26;;;;;;;52.13;30.93;;;;;;;10.40;57.54;99502.41;4995362;28;20257;-73
2022/12/23 08:29:53;;;;;;;56.17;30.93;;;;;;;10.68;55.33;99505.84;4994705;28;20201;-73
2022/12/23 08:32:19;;;;;;;64.73;30.90;;;;;;;10.85;55.31;99507.16;4995266;28;20191;-72
2022/12/23 08:34:46;;;;;;;43.93;28.03;;;;;;;10.88;56.16;99499.63;4994202;28;20392;-70
2022/12/23 08:37:13;;;;;;;43.60;27.07;;;;;;;10.91;55.08;99506.38;4994339;28;20192;-71
2022/12/23 08:39:42;;;;;;;60.10;29.90;;;;;;;11.07;55.36;99498.88;4994812;28;20191;-72
2022/12/23 08:42:09;;;;;;;56.43;29.07;;;;;;;11.12;55.34;99489.47;4994762;28;20209;-73
2022/12/23 08:44:36;;;;;;;49.43;27.93;;;;;;;10.91;54.66;99503.72;4994530;28;20218;-68
2022/12/23 08:47:02;;;;;;;48.53;29.67;;;;;;;10.73;56.07;99492.78;4994549;28;20659;-68
2022/12/23 08:49:29;;;;;;;46.70;27.00;;;;;;;10.55;56.30;99485.31;4992116;28;20265;-69
2022/12/23 08:51:56;;;;;;;41.63;27.97;;;;;;;10.70;56.58;99495.81;4992886;28;20753;-69
2022/12/23 08:54:23;;;;;;;38.80;25.77;;;;;;;10.76;55.21;99495.06;4993768;28;20199;-67
2022/12/23 08:56:52;;;;;;;37.87;24.77;;;;;;;10.58;55.53;99487.59;4994498;28;20285;-71
2022/12/23 08:59:18;;;;;;;54.43;26.30;;;;;;;10.56;56.76;99488.81;4994521;28;20249;-74
2022/12/23 09:01:45;;;;;;;41.37;27.93;;;;;;;10.58;56.31;99478.81;4994477;28;20198;-72
2022/12/23 09:04:12;;;;;;;43.43;26.90;;;;;;;10.33;56.96;99477.63;4993867;28;20226;-72
2022/12/23 09:06:41;;;;;;;46.23;27.90;;;;;;;10.16;57.99;99463.03;4993555;28;20256;-73
2022/12/23 09:09:10;;;;;;;62.47;28.77;;;;;;;10.11;57.64;99457.47;4994212;28;20198;-73
2022/12/23 09:11:37;;;;;;;61.90;29.23;;;;;;;10.15;58.57;99458.75;4993929;28;20253;-74
2022/12/23 09:14:07;;;;;;;38.50;26.03;;;;;;;10.13;56.69;99460.78;4993937;28;20733;-74
2022/12/23 09:16:34;;;;;;;48.93;27.10;;;;;;;10.14;56.94;99455.25;5003054;28;20195;-75
2022/12/23 09:19:00;;;;;;;54.50;27.13;;;;;;;10.06;56.99;99450.09;4994053;28;20667;-74
2022/12/23 09:21:27;;;;;;;52.47;27.30;;;;;;;10.10;56.74;99453.19;4994016;28;20234;-76
2022/12/23 09:23:54;;;;;;;47.63;30.73;;;;;;;10.22;59.21;99449.00;4994614;28;20190;-77
2022/12/23 09:26:23;;;;;;;57.23;32.83;;;;;;;10.24;58.33;99439.81;4994227;28;20255;-81
2022/12/23 09:28:50;;;;;;;50.20;32.90;;;;;;;10.20;58.08;99443.03;4994208;28;20251;-71
2022/12/23 09:31:19;;;;;;;73.43;33.03;;;;;;;10.12;58.54;99424.63;4994086;28;20198;-70
2022/12/23 09:33:47;;;;;;;57.40;33.63;;;;;;;10.13;58.04;99439.53;4993910;28;20194;-70
2022/12/23 09:36:14;;;;;;;61.20;34.53;;;;;;;10.12;58.36;99433.41;4993269;28;20203;-70
2022/12/23 09:38:41;;;;;;;60.70;33.10;;;;;;;10.13;58.80;99431.59;4994015;28;20604;-70
2022/12/23 09:41:23;;;;;;;57.80;33.87;;;;;;;9.94;60.34;99435.72;4993393;28;20670;-71
2022/12/23 09:43:58;;;;;;;58.57;32.67;;;;;;;9.74;60.97;99432.09;4994045;28;20277;-70
2022/12/23 09:46:32;;;;;;;58.20;32.70;;;;;;;9.60;61.70;99418.91;4991303;28;20198;-70
2022/12/23 09:49:04;;;;;;;57.37;34.87;;;;;;;9.63;61.58;99426.47;4994500;28;20632;-69
2022/12/23 09:51:33;;;;;;;58.23;36.50;;;;;;;9.64;61.88;99422.81;4993814;28;20253;-67
2022/12/23 09:54:07;;;;;;;60.33;34.57;;;;;;;9.68;61.95;99416.13;4993673;28;20191;-67
2022/12/23 09:56:40;;;;;;;73.00;34.57;;;;;;;9.76;61.79;99415.97;4993342;28;20190;-68
2022/12/23 09:59:20;;;;;;;52.33;32.67;;;;;;;9.74;60.82;99416.16;5005213;28;20190;-66
2022/12/23 10:01:56;;;;;;;85.30;34.00;;;;;;;9.78;60.52;99411.28;5012780;28;20198;-67
2022/12/23 10:04:41;;;;;;;72.23;34.23;;;;;;;9.87;59.57;99407.47;4995530;28;20663;-68
2022/12/23 10:07:18;;;;;;;68.13;34.10;;;;;;;9.98;59.38;99409.59;4993343;28;20198;-67
2022/12/23 10:09:49;;;;;;;60.37;33.83;;;;;;;10.06;59.30;99404.19;4993481;28;20191;-68
2022/12/23 10:12:23;;;;;;;100.30;38.03;;;;;;;10.12;59.84;99406.03;4993913;28;20194;-67
2022/12/23 10:14:52;;;;;;;62.50;35.67;;;;;;;10.19;58.96;99405.09;4995749;28;20224;-71
2022/12/23 10:17:27;;;;;;;106.77;57.80;;;;;;;10.11;59.01;99399.09;4998257;28;20219;-67
2022/12/23 10:19:59;;;;;;;81.40;42.23;;;;;;;10.06;59.16;99401.53;4993270;28;20326;-69
2022/12/23 10:22:32;;;;;;;65.63;37.87;;;;;;;10.05;59.43;99405.19;4993470;28;20199;-69
2022/12/23 10:25:03;;;;;;;70.00;38.67;;;;;;;10.19;59.30;99390.97;4993291;28;20210;-67
2022/12/23 10:27:34;;;;;;;63.97;37.73;;;;;;;10.34;57.63;99394.34;4992877;28;20187;-67
2022/12/23 10:30:05;;;;;;;68.13;37.33;;;;;;;10.53;56.23;99394.41;4992487;28;20245;-71
2022/12/23 10:32:46;;;;;;;76.83;36.30;;;;;;;10.52;55.03;99399.94;4992752;28;20656;-68
2022/12/23 10:35:22;;;;;;;59.23;35.50;;;;;;;10.47;55.31;99399.69;4992664;28;20280;-68
2022/12/23 10:38:03;;;;;;;64.03;37.03;;;;;;;10.46;55.43;99392.75;4992282;28;20278;-70
2022/12/23 10:40:39;;;;;;;95.47;37.60;;;;;;;10.44;55.85;99394.78;4993577;28;20591;-70
2022/12/23 10:43:17;;;;;;;73.83;37.03;;;;;;;10.56;55.67;99401.16;4990760;28;20253;-70
2022/12/23 10:45:50;;;;;;;70.13;39.97;;;;;;;10.57;54.87;99394.84;4991198;28;20272;-71
2022/12/23 10:48:33;;;;;;;58.70;37.17;;;;;;;10.57;54.96;99394.84;4991736;28;20323;-71
2022/12/23 10:51:03;;;;;;;70.03;36.33;;;;;;;10.70;54.89;99389.56;4992409;28;20187;-70
2022/12/23 10:53:36;;;;;;;73.43;36.80;;;;;;;10.70;55.09;99381.59;4992559;28;20249;-71
2022/12/23 10:56:05;;;;;;;87.87;40.03;;;;;;;10.87;54.40;99383.69;4992337;28;20199;-71
2022/12/23 10:58:31;;;;;;;71.70;36.97;;;;;;;11.03;53.82;99395.81;4992646;28;20248;-71
2022/12/23 11:01:02;;;;;;;88.40;45.70;;;;;;;11.07;53.30;99396.22;4993039;28;20217;-71
2022/12/23 11:03:33;;;;;;;71.67;40.93;;;;;;;11.13;53.10;99390.09;4993016;28;20195;-71
2022/12/23 11:06:01;;;;;;;82.00;41.00;;;;;;;11.15;53.24;99388.06;4992427;28;20207;-71
2022/12/23 11:08:30;;;;;;;77.23;43.00;;;;;;;11.14;53.30;99387.22;4992090;28;20199;-71
2022/12/23 11:10:59;;;;;;;84.57;43.70;;;;;;;11.22;53.29;99383.59;4993041;28;20246;-71
2022/12/23 11:13:35;;;;;;;90.07;44.47;;;;;;;11.30;53.32;99386.84;4992957;28;20205;-71
2022/12/23 11:16:15;;;;;;;90.07;44.10;;;;;;;11.41;53.02;99385.44;4996944;28;20245;-71
2022/12/23 11:18:59;;;;;;;86.93;43.43;;;;;;;11.47;52.77;99385.44;4996765;28;20188;-71
2022/12/23 11:21:27;;;;;;;90.33;43.73;;;;;;;11.52;52.54;99376.84;4996662;28;20648;-71
2022/12/23 11:24:09;;;;;;;79.13;43.10;;;;;;;11.46;53.42;99375.81;4996277;28;20196;-72
2022/12/23 11:26:36;;;;;;;104.47;47.13;;;;;;;11.48;53.63;99372.97;4997285;28;20212;-71
2022/12/23 11:29:09;;;;;;;97.27;48.53;;;;;;;11.41;53.70;99378.28;4996482;28;20194;-70
2022/12/23 11:31:36;;;;;;;78.07;45.23;;;;;;;11.30;53.55;99370.91;4996276;28;20183;-71
2022/12/23 11:34:12;;;;;;;75.27;44.23;;;;;;;11.44;53.41;99372.56;4996489;28;20627;-70
2022/12/23 11:36:39;;;;;;;86.03;43.47;;;;;;;11.50;52.95;99365.56;4997266;28;20196;-73
2022/12/23 11:39:15;;;;;;;81.50;44.43;;;;;;;11.55;52.38;99347.97;4996444;28;20222;-72
2022/12/23 11:41:46;;;;;;;119.27;43.70;;;;;;;11.58;52.59;99339.59;4996207;28;20220;-70
2022/12/23 11:44:20;;;;;;;94.93;44.77;;;;;;;11.72;52.24;99351.09;4996306;28;20199;-70
2022/12/23 11:46:47;;;;;;;85.77;45.73;;;;;;;11.69;52.94;99354.97;4995883;28;20267;-70
2022/12/23 11:49:20;;;;;;;116.93;45.23;;;;;;;11.71;53.03;99352.91;4995988;28;20254;-70
2022/12/23 11:51:58;;;;;;;101.23;47.40;;;;;;;11.62;52.55;99338.19;4995944;28;20243;-70
2022/12/23 11:54:25;;;;;;;94.10;48.57;;;;;;;11.70;53.12;99345.13;4995799;28;20648;-73
2022/12/23 11:56:53;;;;;;;101.73;48.73;;;;;;;11.71;52.84;99347.59;4996237;28;20200;-70